sensor_id;sensor_type;location;lat;lon;timestamp;P1;durP1;ratioP1;P2;durP2;ratioP2
43431;SDS011;40365;41.866;21.942;2022-09-27T00:00:59;12.23;;;6.95;;
43431;SDS011;40365;41.866;21.942;2022-09-27T00:03:26;9.32;;;5.85;;
43431;SDS011;40365;41.866;21.942;2022-09-27T00:06:06;8.10;;;6.20;;
43431;SDS011;40365;41.866;21.942;2022-09-27T00:08:32;14.10;;;6.60;;
43431;SDS011;40365;41.866;21.942;2022-09-27T00:10:59;10.25;;;6.90;;
43431;SDS011;40365;41.866;21.942;2022-09-27T00:14:29;9.27;;;6.32;;
43431;SDS011;40365;41.866;21.942;2022-09-27T00:19:42;8.45;;;5.65;;
43431;SDS011;40365;41.866;21.942;2022-09-27T00:24:59;11.90;;;6.35;;
43431;SDS011;40365;41.866;21.942;2022-09-27T00:27:26;8.55;;;6.57;;
43431;SDS011;40365;41.866;21.942;2022-09-27T00:29:52;9.10;;;6.78;;
43431;SDS011;40365;41.866;21.942;2022-09-27T00:32:19;10.13;;;6.43;;
43431;SDS011;40365;41.866;21.942;2022-09-27T00:34:45;9.15;;;6.25;;
43431;SDS011;40365;41.866;21.942;2022-09-27T00:38:59;7.68;;;5.70;;
43431;SDS011;40365;41.866;21.942;2022-09-27T00:41:30;8.75;;;5.60;;
43431;SDS011;40365;41.866;21.942;2022-09-27T00:43:57;8.82;;;6.60;;
43431;SDS011;40365;41.866;21.942;2022-09-27T00:46:34;8.05;;;6.03;;
43431;SDS011;40365;41.866;21.942;2022-09-27T00:57:18;10.45;;;7.50;;
43431;SDS011;40365;41.866;21.942;2022-09-27T00:59:50;11.02;;;7.80;;
43431;SDS011;40365;41.866;21.942;2022-09-27T01:03:14;10.93;;;6.95;;
43431;SDS011;40365;41.866;21.942;2022-09-27T01:07:06;8.60;;;6.50;;
43431;SDS011;40365;41.866;21.942;2022-09-27T01:09:33;9.60;;;6.80;;
43431;SDS011;40365;41.866;21.942;2022-09-27T01:14:39;10.57;;;7.22;;
43431;SDS011;40365;41.866;21.942;2022-09-27T01:19:57;9.02;;;6.95;;
43431;SDS011;40365;41.866;21.942;2022-09-27T01:24:52;8.43;;;6.10;;
43431;SDS011;40365;41.866;21.942;2022-09-27T01:29:55;8.93;;;7.05;;
43431;SDS011;40365;41.866;21.942;2022-09-27T01:44:53;11.13;;;6.88;;
43431;SDS011;40365;41.866;21.942;2022-09-27T01:49:34;9.95;;;8.07;;
43431;SDS011;40365;41.866;21.942;2022-09-27T01:52:04;10.93;;;7.70;;
43431;SDS011;40365;41.866;21.942;2022-09-27T01:54:42;9.63;;;6.93;;
43431;SDS011;40365;41.866;21.942;2022-09-27T01:57:10;9.18;;;7.15;;
43431;SDS011;40365;41.866;21.942;2022-09-27T01:59:46;9.52;;;7.00;;
43431;SDS011;40365;41.866;21.942;2022-09-27T02:02:15;10.48;;;7.78;;
43431;SDS011;40365;41.866;21.942;2022-09-27T02:04:43;10.02;;;7.68;;
43431;SDS011;40365;41.866;21.942;2022-09-27T02:07:15;11.40;;;8.13;;
43431;SDS011;40365;41.866;21.942;2022-09-27T02:09:55;13.00;;;8.48;;
43431;SDS011;40365;41.866;21.942;2022-09-27T02:13:01;9.57;;;6.95;;
43431;SDS011;40365;41.866;21.942;2022-09-27T02:20:18;10.50;;;7.38;;
43431;SDS011;40365;41.866;21.942;2022-09-27T02:27:03;12.32;;;8.30;;
43431;SDS011;40365;41.866;21.942;2022-09-27T02:29:37;11.13;;;7.95;;
43431;SDS011;40365;41.866;21.942;2022-09-27T02:32:16;11.75;;;8.63;;
43431;SDS011;40365;41.866;21.942;2022-09-27T02:34:42;10.63;;;8.57;;
43431;SDS011;40365;41.866;21.942;2022-09-27T02:37:09;10.75;;;8.43;;
43431;SDS011;40365;41.866;21.942;2022-09-27T02:39:36;92.43;;;57.95;;
43431;SDS011;40365;41.866;21.942;2022-09-27T02:42:02;10.27;;;7.88;;
43431;SDS011;40365;41.866;21.942;2022-09-27T02:44:29;11.35;;;8.40;;
43431;SDS011;40365;41.866;21.942;2022-09-27T02:57:21;12.80;;;10.73;;
43431;SDS011;40365;41.866;21.942;2022-09-27T03:01:42;12.30;;;9.68;;
43431;SDS011;40365;41.866;21.942;2022-09-27T03:05:45;13.20;;;10.75;;
43431;SDS011;40365;41.866;21.942;2022-09-27T03:11:45;14.52;;;11.88;;
43431;SDS011;40365;41.866;21.942;2022-09-27T03:14:40;13.55;;;10.55;;
43431;SDS011;40365;41.866;21.942;2022-09-27T03:18:45;11.55;;;9.55;;
43431;SDS011;40365;41.866;21.942;2022-09-27T03:21:11;14.13;;;11.02;;
43431;SDS011;40365;41.866;21.942;2022-09-27T03:23:37;12.20;;;10.68;;
43431;SDS011;40365;41.866;21.942;2022-09-27T03:26:03;14.10;;;11.20;;
43431;SDS011;40365;41.866;21.942;2022-09-27T03:29:13;11.50;;;9.63;;
43431;SDS011;40365;41.866;21.942;2022-09-27T03:31:40;12.25;;;9.25;;
43431;SDS011;40365;41.866;21.942;2022-09-27T03:34:07;11.40;;;9.73;;
43431;SDS011;40365;41.866;21.942;2022-09-27T03:36:33;12.52;;;10.45;;
43431;SDS011;40365;41.866;21.942;2022-09-27T03:39:36;12.43;;;10.50;;
43431;SDS011;40365;41.866;21.942;2022-09-27T03:43:34;15.02;;;10.93;;
43431;SDS011;40365;41.866;21.942;2022-09-27T03:50:16;12.50;;;10.05;;
43431;SDS011;40365;41.866;21.942;2022-09-27T03:52:42;11.90;;;9.88;;
43431;SDS011;40365;41.866;21.942;2022-09-27T04:01:14;11.93;;;9.55;;
43431;SDS011;40365;41.866;21.942;2022-09-27T04:03:40;11.98;;;10.30;;
43431;SDS011;40365;41.866;21.942;2022-09-27T04:09:38;13.30;;;9.80;;
43431;SDS011;40365;41.866;21.942;2022-09-27T04:12:06;13.10;;;10.82;;
43431;SDS011;40365;41.866;21.942;2022-09-27T04:14:32;13.27;;;10.77;;
43431;SDS011;40365;41.866;21.942;2022-09-27T04:17:31;13.10;;;11.70;;
43431;SDS011;40365;41.866;21.942;2022-09-27T04:21:23;13.48;;;11.52;;
43431;SDS011;40365;41.866;21.942;2022-09-27T04:23:49;12.75;;;10.75;;
43431;SDS011;40365;41.866;21.942;2022-09-27T04:26:15;12.07;;;10.18;;
43431;SDS011;40365;41.866;21.942;2022-09-27T04:30:09;11.95;;;10.38;;
43431;SDS011;40365;41.866;21.942;2022-09-27T04:35:39;11.75;;;8.68;;
43431;SDS011;40365;41.866;21.942;2022-09-27T04:38:23;11.88;;;8.85;;
43431;SDS011;40365;41.866;21.942;2022-09-27T04:40:49;12.05;;;9.20;;
43431;SDS011;40365;41.866;21.942;2022-09-27T04:43:16;13.02;;;9.77;;
43431;SDS011;40365;41.866;21.942;2022-09-27T04:46:29;12.30;;;9.10;;
43431;SDS011;40365;41.866;21.942;2022-09-27T04:48:58;11.63;;;9.57;;
43431;SDS011;40365;41.866;21.942;2022-09-27T04:51:25;12.55;;;10.20;;
43431;SDS011;40365;41.866;21.942;2022-09-27T04:54:30;14.68;;;12.38;;
43431;SDS011;40365;41.866;21.942;2022-09-27T04:58:03;13.38;;;11.25;;
43431;SDS011;40365;41.866;21.942;2022-09-27T05:01:46;12.30;;;10.07;;
43431;SDS011;40365;41.866;21.942;2022-09-27T05:04:14;12.07;;;10.07;;
43431;SDS011;40365;41.866;21.942;2022-09-27T05:06:40;11.52;;;9.45;;
43431;SDS011;40365;41.866;21.942;2022-09-27T05:09:06;15.02;;;10.90;;
43431;SDS011;40365;41.866;21.942;2022-09-27T05:11:32;16.92;;;13.43;;
43431;SDS011;40365;41.866;21.942;2022-09-27T05:18:05;22.10;;;19.77;;
43431;SDS011;40365;41.866;21.942;2022-09-27T05:20:32;21.02;;;18.00;;
43431;SDS011;40365;41.866;21.942;2022-09-27T05:24:01;16.83;;;14.60;;
43431;SDS011;40365;41.866;21.942;2022-09-27T05:26:27;16.15;;;12.85;;
43431;SDS011;40365;41.866;21.942;2022-09-27T05:31:54;14.98;;;10.32;;
43431;SDS011;40365;41.866;21.942;2022-09-27T05:34:20;14.35;;;11.82;;
43431;SDS011;40365;41.866;21.942;2022-09-27T05:36:46;16.63;;;13.13;;
43431;SDS011;40365;41.866;21.942;2022-09-27T05:39:54;16.40;;;13.40;;
43431;SDS011;40365;41.866;21.942;2022-09-27T05:42:20;13.48;;;10.63;;
43431;SDS011;40365;41.866;21.942;2022-09-27T05:44:47;14.15;;;10.70;;
43431;SDS011;40365;41.866;21.942;2022-09-27T05:47:13;18.85;;;12.93;;
43431;SDS011;40365;41.866;21.942;2022-09-27T05:49:40;15.85;;;11.27;;
43431;SDS011;40365;41.866;21.942;2022-09-27T05:52:06;15.55;;;10.70;;
43431;SDS011;40365;41.866;21.942;2022-09-27T05:54:32;15.68;;;10.68;;
43431;SDS011;40365;41.866;21.942;2022-09-27T05:56:58;14.80;;;13.02;;
43431;SDS011;40365;41.866;21.942;2022-09-27T05:59:25;14.98;;;11.65;;
43431;SDS011;40365;41.866;21.942;2022-09-27T06:01:52;14.23;;;11.07;;
43431;SDS011;40365;41.866;21.942;2022-09-27T06:05:50;14.18;;;12.30;;
43431;SDS011;40365;41.866;21.942;2022-09-27T06:08:16;14.73;;;10.73;;
43431;SDS011;40365;41.866;21.942;2022-09-27T06:13:04;13.23;;;9.90;;
43431;SDS011;40365;41.866;21.942;2022-09-27T06:15:31;15.63;;;11.80;;
43431;SDS011;40365;41.866;21.942;2022-09-27T06:19:15;14.45;;;10.50;;
43431;SDS011;40365;41.866;21.942;2022-09-27T06:21:41;14.90;;;11.38;;
43431;SDS011;40365;41.866;21.942;2022-09-27T06:27:41;11.23;;;9.48;;
43431;SDS011;40365;41.866;21.942;2022-09-27T06:30:08;11.80;;;8.90;;
43431;SDS011;40365;41.866;21.942;2022-09-27T06:33:59;10.98;;;8.30;;
43431;SDS011;40365;41.866;21.942;2022-09-27T06:36:25;12.07;;;8.88;;
43431;SDS011;40365;41.866;21.942;2022-09-27T06:38:51;10.23;;;8.35;;
43431;SDS011;40365;41.866;21.942;2022-09-27T06:41:17;10.82;;;7.43;;
43431;SDS011;40365;41.866;21.942;2022-09-27T06:43:44;11.55;;;8.30;;
43431;SDS011;40365;41.866;21.942;2022-09-27T06:46:10;13.02;;;9.18;;
43431;SDS011;40365;41.866;21.942;2022-09-27T06:50:49;11.65;;;7.60;;
43431;SDS011;40365;41.866;21.942;2022-09-27T06:53:15;10.48;;;7.70;;
43431;SDS011;40365;41.866;21.942;2022-09-27T06:55:41;10.55;;;9.07;;
43431;SDS011;40365;41.866;21.942;2022-09-27T06:58:09;11.43;;;7.35;;
43431;SDS011;40365;41.866;21.942;2022-09-27T07:00:54;11.50;;;8.32;;
43431;SDS011;40365;41.866;21.942;2022-09-27T07:03:37;8.82;;;6.57;;
43431;SDS011;40365;41.866;21.942;2022-09-27T07:06:06;9.32;;;6.65;;
43431;SDS011;40365;41.866;21.942;2022-09-27T07:08:33;9.60;;;6.65;;
43431;SDS011;40365;41.866;21.942;2022-09-27T07:11:01;8.48;;;6.25;;
43431;SDS011;40365;41.866;21.942;2022-09-27T07:15:44;9.98;;;7.20;;
43431;SDS011;40365;41.866;21.942;2022-09-27T07:20:41;9.05;;;6.45;;
43431;SDS011;40365;41.866;21.942;2022-09-27T07:23:08;9.57;;;6.57;;
43431;SDS011;40365;41.866;21.942;2022-09-27T07:26:41;9.95;;;7.00;;
43431;SDS011;40365;41.866;21.942;2022-09-27T07:31:08;7.80;;;6.05;;
43431;SDS011;40365;41.866;21.942;2022-09-27T07:36:08;7.72;;;5.30;;
43431;SDS011;40365;41.866;21.942;2022-09-27T07:38:35;7.85;;;5.15;;
43431;SDS011;40365;41.866;21.942;2022-09-27T07:42:00;61.53;;;30.67;;
43431;SDS011;40365;41.866;21.942;2022-09-27T07:44:26;6.88;;;5.03;;
43431;SDS011;40365;41.866;21.942;2022-09-27T07:48:33;9.82;;;5.53;;
43431;SDS011;40365;41.866;21.942;2022-09-27T07:50:59;7.78;;;4.75;;
43431;SDS011;40365;41.866;21.942;2022-09-27T07:55:10;759.35;;;615.38;;
43431;SDS011;40365;41.866;21.942;2022-09-27T08:00:05;10.00;;;5.57;;
43431;SDS011;40365;41.866;21.942;2022-09-27T08:02:45;8.25;;;4.80;;
43431;SDS011;40365;41.866;21.942;2022-09-27T08:05:11;5.60;;;3.95;;
43431;SDS011;40365;41.866;21.942;2022-09-27T08:07:38;8.77;;;4.60;;
43431;SDS011;40365;41.866;21.942;2022-09-27T08:11:46;5.68;;;3.33;;
43431;SDS011;40365;41.866;21.942;2022-09-27T08:16:21;8.85;;;4.10;;
43431;SDS011;40365;41.866;21.942;2022-09-27T08:19:06;7.85;;;4.53;;
43431;SDS011;40365;41.866;21.942;2022-09-27T08:21:32;8.73;;;4.75;;
43431;SDS011;40365;41.866;21.942;2022-09-27T08:23:59;6.53;;;4.40;;
43431;SDS011;40365;41.866;21.942;2022-09-27T08:26:26;6.78;;;4.03;;
43431;SDS011;40365;41.866;21.942;2022-09-27T08:30:44;5.75;;;4.05;;
43431;SDS011;40365;41.866;21.942;2022-09-27T08:33:10;8.82;;;4.53;;
43431;SDS011;40365;41.866;21.942;2022-09-27T08:39:03;5.70;;;3.45;;
43431;SDS011;40365;41.866;21.942;2022-09-27T08:41:40;8.38;;;3.95;;
43431;SDS011;40365;41.866;21.942;2022-09-27T08:49:34;5.55;;;3.40;;
43431;SDS011;40365;41.866;21.942;2022-09-27T08:51:58;875.25;;;595.15;;
43431;SDS011;40365;41.866;21.942;2022-09-27T08:54:25;823.75;;;604.42;;
43431;SDS011;40365;41.866;21.942;2022-09-27T08:56:53;879.40;;;594.72;;
43431;SDS011;40365;41.866;21.942;2022-09-27T08:59:24;826.60;;;584.42;;
43431;SDS011;40365;41.866;21.942;2022-09-27T09:04:02;5.25;;;3.20;;
43431;SDS011;40365;41.866;21.942;2022-09-27T09:06:35;4.03;;;2.80;;
43431;SDS011;40365;41.866;21.942;2022-09-27T09:24:40;5.22;;;3.00;;
43431;SDS011;40365;41.866;21.942;2022-09-27T09:30:21;5.22;;;2.35;;
43431;SDS011;40365;41.866;21.942;2022-09-27T09:35:27;5.20;;;2.30;;
43431;SDS011;40365;41.866;21.942;2022-09-27T09:37:56;3.75;;;2.03;;
43431;SDS011;40365;41.866;21.942;2022-09-27T09:40:25;3.50;;;2.25;;
43431;SDS011;40365;41.866;21.942;2022-09-27T09:42:58;4.00;;;2.17;;
43431;SDS011;40365;41.866;21.942;2022-09-27T09:49:39;4.07;;;2.33;;
43431;SDS011;40365;41.866;21.942;2022-09-27T09:52:41;3.00;;;2.03;;
43431;SDS011;40365;41.866;21.942;2022-09-27T09:55:13;3.53;;;1.90;;
43431;SDS011;40365;41.866;21.942;2022-09-27T09:58:28;3.95;;;2.15;;
43431;SDS011;40365;41.866;21.942;2022-09-27T10:00:28;4.55;;;2.13;;
43431;SDS011;40365;41.866;21.942;2022-09-27T10:02:54;4.03;;;2.45;;
43431;SDS011;40365;41.866;21.942;2022-09-27T10:05:24;2.90;;;1.80;;
43431;SDS011;40365;41.866;21.942;2022-09-27T10:11:53;3.88;;;2.00;;
43431;SDS011;40365;41.866;21.942;2022-09-27T10:14:20;5.32;;;1.50;;
43431;SDS011;40365;41.866;21.942;2022-09-27T10:16:47;5.13;;;2.35;;
43431;SDS011;40365;41.866;21.942;2022-09-27T10:19:18;3.45;;;1.42;;
43431;SDS011;40365;41.866;21.942;2022-09-27T10:21:47;4.18;;;1.60;;
43431;SDS011;40365;41.866;21.942;2022-09-27T10:24:14;3.83;;;2.00;;
43431;SDS011;40365;41.866;21.942;2022-09-27T10:26:42;2.70;;;1.90;;
43431;SDS011;40365;41.866;21.942;2022-09-27T10:31:45;4.68;;;1.60;;
43431;SDS011;40365;41.866;21.942;2022-09-27T10:36:24;2.60;;;1.58;;
43431;SDS011;40365;41.866;21.942;2022-09-27T10:42:33;5.28;;;2.25;;
43431;SDS011;40365;41.866;21.942;2022-09-27T10:46:27;4.13;;;1.83;;
43431;SDS011;40365;41.866;21.942;2022-09-27T10:49:08;2.85;;;1.83;;
43431;SDS011;40365;41.866;21.942;2022-09-27T10:51:37;4.00;;;1.63;;
43431;SDS011;40365;41.866;21.942;2022-09-27T10:54:03;3.67;;;1.58;;
43431;SDS011;40365;41.866;21.942;2022-09-27T10:57:49;3.92;;;1.70;;
43431;SDS011;40365;41.866;21.942;2022-09-27T11:00:24;5.35;;;2.47;;
43431;SDS011;40365;41.866;21.942;2022-09-27T11:02:53;4.28;;;1.77;;
43431;SDS011;40365;41.866;21.942;2022-09-27T11:07:53;2.77;;;1.50;;
43431;SDS011;40365;41.866;21.942;2022-09-27T11:10:21;3.03;;;1.90;;
43431;SDS011;40365;41.866;21.942;2022-09-27T11:21:52;3.80;;;1.63;;
43431;SDS011;40365;41.866;21.942;2022-09-27T11:26:57;4.25;;;1.80;;
43431;SDS011;40365;41.866;21.942;2022-09-27T11:29:49;3.67;;;1.77;;
43431;SDS011;40365;41.866;21.942;2022-09-27T11:40:12;4.07;;;1.85;;
43431;SDS011;40365;41.866;21.942;2022-09-27T11:52:28;2.85;;;1.63;;
43431;SDS011;40365;41.866;21.942;2022-09-27T11:57:29;2.45;;;1.10;;
43431;SDS011;40365;41.866;21.942;2022-09-27T12:10:38;4.70;;;1.88;;
43431;SDS011;40365;41.866;21.942;2022-09-27T12:13:07;3.30;;;1.65;;
43431;SDS011;40365;41.866;21.942;2022-09-27T12:17:42;2.83;;;1.52;;
43431;SDS011;40365;41.866;21.942;2022-09-27T12:20:10;5.03;;;1.73;;
43431;SDS011;40365;41.866;21.942;2022-09-27T12:22:44;2.80;;;1.20;;
43431;SDS011;40365;41.866;21.942;2022-09-27T12:25:13;3.08;;;1.40;;
43431;SDS011;40365;41.866;21.942;2022-09-27T12:27:52;2.85;;;1.40;;
43431;SDS011;40365;41.866;21.942;2022-09-27T12:30:20;2.05;;;1.05;;
43431;SDS011;40365;41.866;21.942;2022-09-27T12:32:54;4.25;;;1.30;;
43431;SDS011;40365;41.866;21.942;2022-09-27T12:35:33;2.63;;;1.30;;
43431;SDS011;40365;41.866;21.942;2022-09-27T12:40:38;2.63;;;1.40;;
43431;SDS011;40365;41.866;21.942;2022-09-27T12:43:05;2.83;;;1.80;;
43431;SDS011;40365;41.866;21.942;2022-09-27T12:45:39;4.53;;;1.90;;
43431;SDS011;40365;41.866;21.942;2022-09-27T12:50:48;1.60;;;1.20;;
43431;SDS011;40365;41.866;21.942;2022-09-27T12:53:20;2.40;;;1.38;;
43431;SDS011;40365;41.866;21.942;2022-09-27T12:58:21;3.97;;;1.15;;
43431;SDS011;40365;41.866;21.942;2022-09-27T13:00:55;4.25;;;1.52;;
43431;SDS011;40365;41.866;21.942;2022-09-27T13:03:30;3.60;;;2.00;;
43431;SDS011;40365;41.866;21.942;2022-09-27T13:06:09;3.15;;;1.63;;
43431;SDS011;40365;41.866;21.942;2022-09-27T13:08:44;921.92;;;759.83;;
43431;SDS011;40365;41.866;21.942;2022-09-27T13:13:48;1056.63;;;772.92;;
43431;SDS011;40365;41.866;21.942;2022-09-27T13:16:14;1050.18;;;786.70;;
43431;SDS011;40365;41.866;21.942;2022-09-27T13:21:52;1053.18;;;788.15;;
43431;SDS011;40365;41.866;21.942;2022-09-27T13:26:53;1082.03;;;703.03;;
43431;SDS011;40365;41.866;21.942;2022-09-27T13:29:26;1076.53;;;729.78;;
43431;SDS011;40365;41.866;21.942;2022-09-27T13:34:37;1070.57;;;757.10;;
43431;SDS011;40365;41.866;21.942;2022-09-27T13:39:48;1042.63;;;705.13;;
43431;SDS011;40365;41.866;21.942;2022-09-27T13:42:25;1070.57;;;694.53;;
43431;SDS011;40365;41.866;21.942;2022-09-27T13:47:43;1074.32;;;658.95;;
43431;SDS011;40365;41.866;21.942;2022-09-27T13:50:24;1085.85;;;592.33;;
43431;SDS011;40365;41.866;21.942;2022-09-27T13:52:56;1042.82;;;621.40;;
43431;SDS011;40365;41.866;21.942;2022-09-27T14:00:53;1087.18;;;604.97;;
43431;SDS011;40365;41.866;21.942;2022-09-27T14:03:29;1083.60;;;652.38;;
43431;SDS011;40365;41.866;21.942;2022-09-27T14:06:17;1078.43;;;621.13;;
43431;SDS011;40365;41.866;21.942;2022-09-27T14:08:48;1050.00;;;618.85;;
43431;SDS011;40365;41.866;21.942;2022-09-27T14:11:29;986.75;;;666.05;;
43431;SDS011;40365;41.866;21.942;2022-09-27T14:13:55;983.33;;;646.63;;
43431;SDS011;40365;41.866;21.942;2022-09-27T14:16:22;1002.42;;;625.30;;
43431;SDS011;40365;41.866;21.942;2022-09-27T14:19:29;986.70;;;617.78;;
43431;SDS011;40365;41.866;21.942;2022-09-27T14:23:17;873.72;;;635.10;;
43431;SDS011;40365;41.866;21.942;2022-09-27T14:25:45;922.80;;;648.67;;
43431;SDS011;40365;41.866;21.942;2022-09-27T14:28:45;909.92;;;638.05;;
43431;SDS011;40365;41.866;21.942;2022-09-27T14:31:05;851.00;;;637.67;;
43431;SDS011;40365;41.866;21.942;2022-09-27T14:33:32;846.97;;;632.08;;
43431;SDS011;40365;41.866;21.942;2022-09-27T14:35:58;816.33;;;642.35;;
43431;SDS011;40365;41.866;21.942;2022-09-27T14:38:44;814.97;;;633.67;;
43431;SDS011;40365;41.866;21.942;2022-09-27T14:41:12;816.15;;;630.70;;
43431;SDS011;40365;41.866;21.942;2022-09-27T14:43:43;833.03;;;643.60;;
43431;SDS011;40365;41.866;21.942;2022-09-27T14:46:22;790.80;;;642.15;;
43431;SDS011;40365;41.866;21.942;2022-09-27T14:48:50;787.60;;;641.72;;
43431;SDS011;40365;41.866;21.942;2022-09-27T14:53:01;810.35;;;635.13;;
43431;SDS011;40365;41.866;21.942;2022-09-27T14:55:57;802.15;;;638.85;;
43431;SDS011;40365;41.866;21.942;2022-09-27T14:58:24;816.80;;;629.00;;
43431;SDS011;40365;41.866;21.942;2022-09-27T15:01:56;788.85;;;624.95;;
43431;SDS011;40365;41.866;21.942;2022-09-27T15:04:24;782.83;;;605.90;;
43431;SDS011;40365;41.866;21.942;2022-09-27T15:06:52;765.45;;;552.13;;
43431;SDS011;40365;41.866;21.942;2022-09-27T15:09:18;806.67;;;573.90;;
43431;SDS011;40365;41.866;21.942;2022-09-27T15:11:46;836.75;;;592.63;;
43431;SDS011;40365;41.866;21.942;2022-09-27T15:14:16;834.53;;;648.95;;
43431;SDS011;40365;41.866;21.942;2022-09-27T15:16:47;868.75;;;655.17;;
43431;SDS011;40365;41.866;21.942;2022-09-27T15:19:21;897.08;;;636.20;;
43431;SDS011;40365;41.866;21.942;2022-09-27T15:21:48;888.35;;;670.42;;
43431;SDS011;40365;41.866;21.942;2022-09-27T15:26:58;930.25;;;653.50;;
43431;SDS011;40365;41.866;21.942;2022-09-27T15:29:25;892.53;;;682.90;;
43431;SDS011;40365;41.866;21.942;2022-09-27T15:31:58;907.90;;;669.90;;
43431;SDS011;40365;41.866;21.942;2022-09-27T15:34:25;904.53;;;706.25;;
43431;SDS011;40365;41.866;21.942;2022-09-27T15:36:55;911.67;;;717.72;;
43431;SDS011;40365;41.866;21.942;2022-09-27T15:39:28;861.83;;;747.55;;
43431;SDS011;40365;41.866;21.942;2022-09-27T15:44:36;865.42;;;730.92;;
43431;SDS011;40365;41.866;21.942;2022-09-27T15:47:03;877.60;;;699.45;;
43431;SDS011;40365;41.866;21.942;2022-09-27T15:49:30;878.53;;;715.72;;
43431;SDS011;40365;41.866;21.942;2022-09-27T15:52:00;874.45;;;696.92;;
43431;SDS011;40365;41.866;21.942;2022-09-27T15:54:29;889.10;;;696.70;;
43431;SDS011;40365;41.866;21.942;2022-09-27T15:56:59;865.42;;;719.83;;
43431;SDS011;40365;41.866;21.942;2022-09-27T15:59:29;860.30;;;712.63;;
43431;SDS011;40365;41.866;21.942;2022-09-27T16:01:56;849.47;;;706.65;;
43431;SDS011;40365;41.866;21.942;2022-09-27T16:04:23;851.75;;;724.25;;
43431;SDS011;40365;41.866;21.942;2022-09-27T16:06:50;826.70;;;676.95;;
43431;SDS011;40365;41.866;21.942;2022-09-27T16:09:16;849.40;;;680.42;;
43431;SDS011;40365;41.866;21.942;2022-09-27T16:13:14;835.35;;;676.75;;
43431;SDS011;40365;41.866;21.942;2022-09-27T16:15:40;843.63;;;680.47;;
43431;SDS011;40365;41.866;21.942;2022-09-27T16:18:06;827.33;;;674.60;;
43431;SDS011;40365;41.866;21.942;2022-09-27T16:20:32;822.20;;;671.03;;
43431;SDS011;40365;41.866;21.942;2022-09-27T16:22:58;817.92;;;662.47;;
43431;SDS011;40365;41.866;21.942;2022-09-27T16:25:55;771.13;;;552.83;;
43431;SDS011;40365;41.866;21.942;2022-09-27T16:28:21;733.65;;;515.72;;
43431;SDS011;40365;41.866;21.942;2022-09-27T16:30:47;794.83;;;590.95;;
43431;SDS011;40365;41.866;21.942;2022-09-27T16:33:13;788.20;;;575.42;;
43431;SDS011;40365;41.866;21.942;2022-09-27T16:35:40;764.03;;;509.45;;
43431;SDS011;40365;41.866;21.942;2022-09-27T16:38:26;3.75;;;2.00;;
43431;SDS011;40365;41.866;21.942;2022-09-27T16:40:58;5.38;;;1.98;;
43431;SDS011;40365;41.866;21.942;2022-09-27T16:45:13;4.15;;;2.03;;
43431;SDS011;40365;41.866;21.942;2022-09-27T16:48:08;4.30;;;1.98;;
43431;SDS011;40365;41.866;21.942;2022-09-27T16:50:34;5.70;;;2.45;;
43431;SDS011;40365;41.866;21.942;2022-09-27T16:53:19;4.07;;;1.85;;
43431;SDS011;40365;41.866;21.942;2022-09-27T16:56:28;2.97;;;1.55;;
43431;SDS011;40365;41.866;21.942;2022-09-27T16:58:56;2.58;;;1.30;;
43431;SDS011;40365;41.866;21.942;2022-09-27T17:02:23;4.22;;;1.92;;
43431;SDS011;40365;41.866;21.942;2022-09-27T17:09:42;4.22;;;1.60;;
43431;SDS011;40365;41.866;21.942;2022-09-27T17:12:09;4.28;;;1.65;;
43431;SDS011;40365;41.866;21.942;2022-09-27T17:15:20;6.70;;;2.58;;
43431;SDS011;40365;41.866;21.942;2022-09-27T17:18:43;5.18;;;2.00;;
43431;SDS011;40365;41.866;21.942;2022-09-27T17:21:09;3.75;;;2.00;;
43431;SDS011;40365;41.866;21.942;2022-09-27T17:23:36;4.30;;;2.25;;
43431;SDS011;40365;41.866;21.942;2022-09-27T17:26:03;3.10;;;1.23;;
43431;SDS011;40365;41.866;21.942;2022-09-27T17:28:30;5.07;;;1.85;;
43431;SDS011;40365;41.866;21.942;2022-09-27T17:31:03;6.00;;;2.28;;
43431;SDS011;40365;41.866;21.942;2022-09-27T17:33:30;6.15;;;2.72;;
43431;SDS011;40365;41.866;21.942;2022-09-27T17:36:35;3.55;;;2.00;;
43431;SDS011;40365;41.866;21.942;2022-09-27T17:39:02;1.90;;;1.38;;
43431;SDS011;40365;41.866;21.942;2022-09-27T17:41:28;5.40;;;1.55;;
43431;SDS011;40365;41.866;21.942;2022-09-27T17:44:53;6.50;;;2.60;;
43431;SDS011;40365;41.866;21.942;2022-09-27T17:48:04;11.30;;;5.65;;
43431;SDS011;40365;41.866;21.942;2022-09-27T17:50:48;9.98;;;5.20;;
43431;SDS011;40365;41.866;21.942;2022-09-27T17:55:15;7.45;;;2.97;;
43431;SDS011;40365;41.866;21.942;2022-09-27T17:57:42;5.40;;;2.35;;
43431;SDS011;40365;41.866;21.942;2022-09-27T18:01:11;5.68;;;3.38;;
43431;SDS011;40365;41.866;21.942;2022-09-27T18:03:53;3.83;;;2.17;;
43431;SDS011;40365;41.866;21.942;2022-09-27T18:06:20;3.63;;;1.98;;
43431;SDS011;40365;41.866;21.942;2022-09-27T18:10:16;2.75;;;1.70;;
43431;SDS011;40365;41.866;21.942;2022-09-27T18:12:42;3.78;;;1.67;;
43431;SDS011;40365;41.866;21.942;2022-09-27T18:15:08;1.73;;;1.33;;
43431;SDS011;40365;41.866;21.942;2022-09-27T18:19:52;3.83;;;1.63;;
43431;SDS011;40365;41.866;21.942;2022-09-27T18:23:59;3.08;;;1.23;;
43431;SDS011;40365;41.866;21.942;2022-09-27T18:26:28;3.60;;;1.27;;
43431;SDS011;40365;41.866;21.942;2022-09-27T18:28:58;2.22;;;1.08;;
43431;SDS011;40365;41.866;21.942;2022-09-27T18:32:49;5.85;;;1.85;;
43431;SDS011;40365;41.866;21.942;2022-09-27T18:35:15;2.97;;;1.55;;
43431;SDS011;40365;41.866;21.942;2022-09-27T18:37:43;3.60;;;1.90;;
43431;SDS011;40365;41.866;21.942;2022-09-27T18:42:22;4.45;;;2.03;;
43431;SDS011;40365;41.866;21.942;2022-09-27T18:46:35;4.95;;;2.70;;
43431;SDS011;40365;41.866;21.942;2022-09-27T18:50:14;5.53;;;2.28;;
43431;SDS011;40365;41.866;21.942;2022-09-27T18:52:40;4.53;;;2.17;;
43431;SDS011;40365;41.866;21.942;2022-09-27T18:55:06;2.70;;;1.50;;
43431;SDS011;40365;41.866;21.942;2022-09-27T18:59:03;2.58;;;1.13;;
43431;SDS011;40365;41.866;21.942;2022-09-27T19:01:33;1.90;;;1.02;;
43431;SDS011;40365;41.866;21.942;2022-09-27T19:04:03;1.70;;;1.13;;
43431;SDS011;40365;41.866;21.942;2022-09-27T19:11:16;3.72;;;1.70;;
43431;SDS011;40365;41.866;21.942;2022-09-27T19:13:43;3.60;;;1.65;;
43431;SDS011;40365;41.866;21.942;2022-09-27T19:16:10;6.57;;;3.10;;
43431;SDS011;40365;41.866;21.942;2022-09-27T19:18:37;36.40;;;25.85;;
43431;SDS011;40365;41.866;21.942;2022-09-27T19:22:45;25.52;;;15.63;;
43431;SDS011;40365;41.866;21.942;2022-09-27T19:26:19;11.30;;;6.15;;
43431;SDS011;40365;41.866;21.942;2022-09-27T19:28:46;7.32;;;3.40;;
43431;SDS011;40365;41.866;21.942;2022-09-27T19:31:14;6.20;;;2.40;;
43431;SDS011;40365;41.866;21.942;2022-09-27T19:33:40;8.45;;;3.80;;
43431;SDS011;40365;41.866;21.942;2022-09-27T19:38:02;4.93;;;1.90;;
43431;SDS011;40365;41.866;21.942;2022-09-27T19:40:51;6.82;;;2.67;;
43431;SDS011;40365;41.866;21.942;2022-09-27T19:43:18;4.90;;;2.35;;
43431;SDS011;40365;41.866;21.942;2022-09-27T19:45:44;5.10;;;2.10;;
43431;SDS011;40365;41.866;21.942;2022-09-27T19:48:10;3.17;;;1.58;;
43431;SDS011;40365;41.866;21.942;2022-09-27T19:50:36;4.35;;;1.65;;